Terminal Aerodrome Forecast
Issued by NWS

Current Version | Previous Version | Text Only | Print | Product List | Glossary Off
Versions: 1 2 3 4 5 6 7 8 9 10 11 12 13 14 15 16 17 18 19

154
FTUS41 KILN 160223 AAA
TAFLCK
TAF AMD
KLCK 160223Z 1602/1624 23011KT 4SM BR OVC005
     FM160500 26014KT P6SM FEW040
     FM160930 27013KT P6SM BKN015
     FM161800 29012KT P6SM BKN025=

USA.gov is the U.S. government's official web portal to all federal, state and local government web resources and services.